sensor_id;sensor_type;location;lat;lon;timestamp;pressure;altitude;pressure_sealevel;temperature;humidity
57859;BME280;49153;45.568;11.894;2022-12-26T00:01:52;102344.19;;;9.19;92.03
57859;BME280;49153;45.568;11.894;2022-12-26T00:04:18;102346.00;;;9.17;91.52
57859;BME280;49153;45.568;11.894;2022-12-26T00:06:44;102336.75;;;9.07;91.90
57859;BME280;49153;45.568;11.894;2022-12-26T00:09:09;102344.66;;;9.07;91.96
57859;BME280;49153;45.568;11.894;2022-12-26T00:11:35;102354.13;;;9.11;91.96
57859;BME280;49153;45.568;11.894;2022-12-26T00:14:07;102347.34;;;9.05;91.89
57859;BME280;49153;45.568;11.894;2022-12-26T00:16:33;102360.25;;;9.11;92.17
57859;BME280;49153;45.568;11.894;2022-12-26T00:18:59;102358.63;;;9.09;92.20
57859;BME280;49153;45.568;11.894;2022-12-26T00:21:25;102357.00;;;9.05;92.07
57859;BME280;49153;45.568;11.894;2022-12-26T00:23:53;102355.31;;;9.04;91.98
57859;BME280;49153;45.568;11.894;2022-12-26T00:26:20;102357.63;;;9.11;92.43
57859;BME280;49153;45.568;11.894;2022-12-26T00:28:46;102356.72;;;9.12;92.70
57859;BME280;49153;45.568;11.894;2022-12-26T00:31:15;102353.84;;;9.18;92.37
57859;BME280;49153;45.568;11.894;2022-12-26T00:33:41;102342.81;;;9.09;92.15
57859;BME280;49153;45.568;11.894;2022-12-26T00:36:09;102349.78;;;9.10;92.20
57859;BME280;49153;45.568;11.894;2022-12-26T00:38:36;102360.94;;;9.16;92.61
57859;BME280;49153;45.568;11.894;2022-12-26T00:41:02;102350.41;;;9.16;92.92
57859;BME280;49153;45.568;11.894;2022-12-26T00:43:29;102357.34;;;9.19;92.25
57859;BME280;49153;45.568;11.894;2022-12-26T00:45:55;102364.19;;;9.23;92.43
57859;BME280;49153;45.568;11.894;2022-12-26T00:48:21;102358.25;;;9.18;91.79
57859;BME280;49153;45.568;11.894;2022-12-26T00:50:46;102349.44;;;9.19;92.16
57859;BME280;49153;45.568;11.894;2022-12-26T00:53:12;102352.13;;;9.17;92.40
57859;BME280;49153;45.568;11.894;2022-12-26T00:55:37;102359.84;;;9.22;92.33
57859;BME280;49153;45.568;11.894;2022-12-26T00:58:03;102346.91;;;9.16;92.63
57859;BME280;49153;45.568;11.894;2022-12-26T01:00:29;102361.44;;;9.26;92.66
57859;BME280;49153;45.568;11.894;2022-12-26T01:02:54;102353.72;;;9.21;92.25
57859;BME280;49153;45.568;11.894;2022-12-26T01:05:20;102357.22;;;9.22;92.11
57859;BME280;49153;45.568;11.894;2022-12-26T01:07:45;102366.69;;;9.26;91.83
57859;BME280;49153;45.568;11.894;2022-12-26T01:10:11;102371.38;;;9.19;92.36
57859;BME280;49153;45.568;11.894;2022-12-26T01:12:37;102357.69;;;9.10;92.13
57859;BME280;49153;45.568;11.894;2022-12-26T01:15:04;102360.94;;;9.16;92.51
57859;BME280;49153;45.568;11.894;2022-12-26T01:17:30;102366.97;;;9.20;92.26
57859;BME280;49153;45.568;11.894;2022-12-26T01:19:56;102361.94;;;9.14;92.16
57859;BME280;49153;45.568;11.894;2022-12-26T01:22:22;102360.22;;;9.13;92.29
57859;BME280;49153;45.568;11.894;2022-12-26T01:24:48;102368.22;;;9.10;92.31
57859;BME280;49153;45.568;11.894;2022-12-26T01:27:13;102360.31;;;9.10;91.97
57859;BME280;49153;45.568;11.894;2022-12-26T01:29:38;102365.56;;;9.10;92.37
57859;BME280;49153;45.568;11.894;2022-12-26T01:32:04;102367.53;;;9.05;91.88
57859;BME280;49153;45.568;11.894;2022-12-26T01:34:29;102379.69;;;9.09;92.11
57859;BME280;49153;45.568;11.894;2022-12-26T01:36:55;102366.56;;;9.07;92.47
57859;BME280;49153;45.568;11.894;2022-12-26T01:39:20;102372.78;;;9.05;92.24
57859;BME280;49153;45.568;11.894;2022-12-26T01:41:46;102382.31;;;9.09;92.21
57859;BME280;49153;45.568;11.894;2022-12-26T01:47:14;102351.91;;;9.00;92.19
57859;BME280;49153;45.568;11.894;2022-12-26T01:49:42;102363.88;;;9.09;92.48
57859;BME280;49153;45.568;11.894;2022-12-26T01:52:15;102357.94;;;9.04;92.48
57859;BME280;49153;45.568;11.894;2022-12-26T01:54:47;102348.44;;;9.00;92.46
57859;BME280;49153;45.568;11.894;2022-12-26T01:57:23;102363.13;;;9.05;92.73
57859;BME280;49153;45.568;11.894;2022-12-26T01:59:54;102348.44;;;9.00;92.29
57859;BME280;49153;45.568;11.894;2022-12-26T02:02:21;102347.56;;;8.99;92.55
57859;BME280;49153;45.568;11.894;2022-12-26T02:04:49;102338.94;;;8.96;92.64
57859;BME280;49153;45.568;11.894;2022-12-26T02:07:36;102350.16;;;9.01;93.04
57859;BME280;49153;45.568;11.894;2022-12-26T02:10:05;102355.31;;;9.04;92.60
57859;BME280;49153;45.568;11.894;2022-12-26T02:12:33;102336.44;;;8.93;92.36
57859;BME280;49153;45.568;11.894;2022-12-26T02:15:00;102358.09;;;8.99;92.44
57859;BME280;49153;45.568;11.894;2022-12-26T02:17:27;102346.78;;;8.97;92.92
57859;BME280;49153;45.568;11.894;2022-12-26T02:20:20;102346.09;;;8.92;92.86
57859;BME280;49153;45.568;11.894;2022-12-26T02:40:34;102357.81;;;9.07;92.56
57859;BME280;49153;45.568;11.894;2022-12-26T02:43:21;102336.22;;;8.99;92.59
57859;BME280;49153;45.568;11.894;2022-12-26T02:48:57;102346.97;;;8.93;92.14
57859;BME280;49153;45.568;11.894;2022-12-26T02:51:38;102354.00;;;8.92;92.71
57859;BME280;49153;45.568;11.894;2022-12-26T02:54:47;102353.00;;;8.95;92.78
57859;BME280;49153;45.568;11.894;2022-12-26T02:57:36;102347.50;;;9.01;93.18
57859;BME280;49153;45.568;11.894;2022-12-26T03:00:24;102339.25;;;8.88;92.48
57859;BME280;49153;45.568;11.894;2022-12-26T03:03:09;102340.84;;;8.92;92.81
57859;BME280;49153;45.568;11.894;2022-12-26T03:08:48;102339.34;;;8.85;92.67
57859;BME280;49153;45.568;11.894;2022-12-26T03:11:38;102330.53;;;8.86;93.13
57859;BME280;49153;45.568;11.894;2022-12-26T03:14:29;102326.25;;;8.83;93.17
57859;BME280;49153;45.568;11.894;2022-12-26T03:17:02;102320.25;;;8.80;93.15
57859;BME280;49153;45.568;11.894;2022-12-26T03:23:12;102327.88;;;8.87;93.11
57859;BME280;49153;45.568;11.894;2022-12-26T03:28:17;102322.19;;;8.75;93.24
57859;BME280;49153;45.568;11.894;2022-12-26T03:30:42;102329.19;;;8.76;92.88
57859;BME280;49153;45.568;11.894;2022-12-26T03:36:05;102314.13;;;8.79;93.05
57859;BME280;49153;45.568;11.894;2022-12-26T03:38:54;102326.25;;;8.83;93.01
57859;BME280;49153;45.568;11.894;2022-12-26T03:45:13;102318.47;;;8.80;93.34
57859;BME280;49153;45.568;11.894;2022-12-26T03:48:00;102319.28;;;8.82;92.79
57859;BME280;49153;45.568;11.894;2022-12-26T03:50:55;102307.22;;;8.77;93.07
57859;BME280;49153;45.568;11.894;2022-12-26T03:53:54;102317.56;;;8.81;92.90
57859;BME280;49153;45.568;11.894;2022-12-26T03:56:49;102303.97;;;8.70;92.55
57859;BME280;49153;45.568;11.894;2022-12-26T04:02:44;102307.34;;;8.51;92.82
57859;BME280;49153;45.568;11.894;2022-12-26T04:05:29;102298.94;;;8.41;93.46
57859;BME280;49153;45.568;11.894;2022-12-26T04:08:19;102302.50;;;8.40;93.12
57859;BME280;49153;45.568;11.894;2022-12-26T04:11:05;102303.41;;;8.39;93.23
57859;BME280;49153;45.568;11.894;2022-12-26T04:14:04;102301.69;;;8.38;93.81
57859;BME280;49153;45.568;11.894;2022-12-26T04:16:55;102310.53;;;8.35;93.90
57859;BME280;49153;45.568;11.894;2022-12-26T04:22:45;102322.88;;;8.33;93.84
57859;BME280;49153;45.568;11.894;2022-12-26T04:25:53;102336.78;;;8.37;94.14
57859;BME280;49153;45.568;11.894;2022-12-26T04:28:41;102333.28;;;8.36;93.60
57859;BME280;49153;45.568;11.894;2022-12-26T04:31:36;102339.41;;;8.37;93.78
57859;BME280;49153;45.568;11.894;2022-12-26T04:34:53;102333.22;;;8.38;93.85
57859;BME280;49153;45.568;11.894;2022-12-26T04:37:41;102348.97;;;8.39;94.05
57859;BME280;49153;45.568;11.894;2022-12-26T04:40:30;102348.16;;;8.37;93.84
57859;BME280;49153;45.568;11.894;2022-12-26T04:43:17;102348.28;;;8.34;94.14
57859;BME280;49153;45.568;11.894;2022-12-26T04:46:02;102349.31;;;8.29;94.24
57859;BME280;49153;45.568;11.894;2022-12-26T04:48:27;102327.47;;;8.27;94.68
57859;BME280;49153;45.568;11.894;2022-12-26T04:51:11;102335.31;;;8.30;94.53
57859;BME280;49153;45.568;11.894;2022-12-26T04:53:36;102318.53;;;8.32;94.56
57859;BME280;49153;45.568;11.894;2022-12-26T04:56:02;102334.13;;;8.37;94.56
57859;BME280;49153;45.568;11.894;2022-12-26T04:58:28;102323.56;;;8.38;94.35
57859;BME280;49153;45.568;11.894;2022-12-26T05:00:54;102331.28;;;8.43;94.81
57859;BME280;49153;45.568;11.894;2022-12-26T05:03:39;102334.78;;;8.43;94.70
57859;BME280;49153;45.568;11.894;2022-12-26T05:06:23;102331.41;;;8.40;94.25
57859;BME280;49153;45.568;11.894;2022-12-26T05:09:09;102343.41;;;8.47;94.48
57859;BME280;49153;45.568;11.894;2022-12-26T05:11:54;102347.66;;;8.51;94.75
57859;BME280;49153;45.568;11.894;2022-12-26T05:14:19;102332.03;;;8.46;94.28
57859;BME280;49153;45.568;11.894;2022-12-26T05:16:45;102333.94;;;8.43;94.22
57859;BME280;49153;45.568;11.894;2022-12-26T05:19:29;102343.38;;;8.48;93.99
57859;BME280;49153;45.568;11.894;2022-12-26T05:22:13;102333.88;;;8.44;94.22
57859;BME280;49153;45.568;11.894;2022-12-26T05:24:57;102347.72;;;8.50;94.23
57859;BME280;49153;45.568;11.894;2022-12-26T05:27:42;102354.69;;;8.51;94.81
57859;BME280;49153;45.568;11.894;2022-12-26T05:30:27;102365.09;;;8.54;94.54
57859;BME280;49153;45.568;11.894;2022-12-26T05:32:52;102368.63;;;8.53;94.25
57859;BME280;49153;45.568;11.894;2022-12-26T05:35:36;102365.31;;;8.47;93.92
57859;BME280;49153;45.568;11.894;2022-12-26T05:38:02;102369.63;;;8.50;94.52
57859;BME280;49153;45.568;11.894;2022-12-26T05:40:28;102363.53;;;8.48;94.28
57859;BME280;49153;45.568;11.894;2022-12-26T05:42:54;102365.53;;;8.41;94.36
57859;BME280;49153;45.568;11.894;2022-12-26T05:45:19;102355.09;;;8.40;94.63
57859;BME280;49153;45.568;11.894;2022-12-26T05:47:45;102354.47;;;8.32;94.59
57859;BME280;49153;45.568;11.894;2022-12-26T05:50:10;102364.91;;;8.35;94.39
57859;BME280;49153;45.568;11.894;2022-12-26T05:52:36;102359.84;;;8.29;94.98
57859;BME280;49153;45.568;11.894;2022-12-26T05:55:01;102377.13;;;8.36;94.58
57859;BME280;49153;45.568;11.894;2022-12-26T05:57:27;102363.97;;;8.36;94.28
57859;BME280;49153;45.568;11.894;2022-12-26T05:59:52;102359.88;;;8.27;94.62
57859;BME280;49153;45.568;11.894;2022-12-26T06:02:18;102339.88;;;8.23;94.26
57859;BME280;49153;45.568;11.894;2022-12-26T06:04:43;102355.59;;;8.25;94.88
57859;BME280;49153;45.568;11.894;2022-12-26T06:07:08;102343.38;;;8.24;94.57
57859;BME280;49153;45.568;11.894;2022-12-26T06:09:34;102361.66;;;8.27;94.68
57859;BME280;49153;45.568;11.894;2022-12-26T06:11:59;102358.13;;;8.28;94.81
57859;BME280;49153;45.568;11.894;2022-12-26T06:14:25;102365.09;;;8.29;94.54
57859;BME280;49153;45.568;11.894;2022-12-26T06:16:50;102358.78;;;8.34;94.73
57859;BME280;49153;45.568;11.894;2022-12-26T06:19:15;102359.69;;;8.33;94.60
57859;BME280;49153;45.568;11.894;2022-12-26T06:21:41;102351.91;;;8.30;94.69
57859;BME280;49153;45.568;11.894;2022-12-26T06:24:07;102354.47;;;8.32;94.79
57859;BME280;49153;45.568;11.894;2022-12-26T06:26:32;102359.53;;;8.38;94.51
57859;BME280;49153;45.568;11.894;2022-12-26T06:28:58;102370.00;;;8.39;94.27
57859;BME280;49153;45.568;11.894;2022-12-26T06:31:23;102361.47;;;8.33;93.64
57859;BME280;49153;45.568;11.894;2022-12-26T06:33:56;102359.84;;;8.29;93.97
57859;BME280;49153;45.568;11.894;2022-12-26T06:36:26;102359.06;;;8.25;94.15
57859;BME280;49153;45.568;11.894;2022-12-26T06:38:52;102372.88;;;8.32;94.35
57859;BME280;49153;45.568;11.894;2022-12-26T06:41:20;102362.47;;;8.29;94.12
57859;BME280;49153;45.568;11.894;2022-12-26T06:43:46;102365.09;;;8.29;94.57
57859;BME280;49153;45.568;11.894;2022-12-26T06:46:15;102366.84;;;8.30;94.12
57859;BME280;49153;45.568;11.894;2022-12-26T06:48:41;102385.09;;;8.34;93.99
57859;BME280;49153;45.568;11.894;2022-12-26T06:51:10;102377.38;;;8.30;94.41
57859;BME280;49153;45.568;11.894;2022-12-26T06:53:36;102368.53;;;8.31;93.79
57859;BME280;49153;45.568;11.894;2022-12-26T06:56:13;102376.25;;;8.35;93.69
57859;BME280;49153;45.568;11.894;2022-12-26T06:58:39;102366.13;;;8.25;94.00
57859;BME280;49153;45.568;11.894;2022-12-26T07:01:11;102367.06;;;8.22;94.04
57859;BME280;49153;45.568;11.894;2022-12-26T07:03:37;102367.06;;;8.22;93.58
57859;BME280;49153;45.568;11.894;2022-12-26T07:06:05;102376.78;;;8.20;93.65
57859;BME280;49153;45.568;11.894;2022-12-26T07:08:31;102370.91;;;8.14;93.92
57859;BME280;49153;45.568;11.894;2022-12-26T07:11:23;102379.56;;;8.16;94.10
57859;BME280;49153;45.568;11.894;2022-12-26T07:14:03;102377.22;;;8.08;94.14
57859;BME280;49153;45.568;11.894;2022-12-26T07:16:29;102379.69;;;8.13;93.97
57859;BME280;49153;45.568;11.894;2022-12-26T07:18:56;102380.47;;;8.15;94.43
57859;BME280;49153;45.568;11.894;2022-12-26T07:21:23;102365.72;;;8.11;93.88
57859;BME280;49153;45.568;11.894;2022-12-26T07:23:50;102380.34;;;8.19;94.10
57859;BME280;49153;45.568;11.894;2022-12-26T07:26:15;102371.63;;;8.17;94.15
57859;BME280;49153;45.568;11.894;2022-12-26T07:28:41;102382.69;;;8.27;94.56
57859;BME280;49153;45.568;11.894;2022-12-26T07:31:06;102379.16;;;8.28;94.63
57859;BME280;49153;45.568;11.894;2022-12-26T07:33:32;102383.38;;;8.33;94.31
57859;BME280;49153;45.568;11.894;2022-12-26T07:39:06;102377.75;;;8.42;94.42
57859;BME280;49153;45.568;11.894;2022-12-26T07:41:32;102387.22;;;8.48;94.19
57859;BME280;49153;45.568;11.894;2022-12-26T07:44:16;102386.34;;;8.47;94.27
57859;BME280;49153;45.568;11.894;2022-12-26T07:46:41;102384.00;;;8.40;94.44
57859;BME280;49153;45.568;11.894;2022-12-26T07:49:07;102391.81;;;8.41;94.13
57859;BME280;49153;45.568;11.894;2022-12-26T07:51:33;102402.09;;;8.49;94.34
57859;BME280;49153;45.568;11.894;2022-12-26T07:53:58;102405.63;;;8.48;94.31
57859;BME280;49153;45.568;11.894;2022-12-26T07:56:23;102417.66;;;8.55;93.97
57859;BME280;49153;45.568;11.894;2022-12-26T07:58:49;102414.09;;;8.56;93.94
57859;BME280;49153;45.568;11.894;2022-12-26T08:01:15;102416.78;;;8.55;94.03
57859;BME280;49153;45.568;11.894;2022-12-26T08:03:41;102414.25;;;8.52;93.85
57859;BME280;49153;45.568;11.894;2022-12-26T08:06:09;102416.84;;;8.53;93.43
57859;BME280;49153;45.568;11.894;2022-12-26T08:08:34;102437.72;;;8.58;93.65
57859;BME280;49153;45.568;11.894;2022-12-26T08:11:03;102428.34;;;8.51;93.08
57859;BME280;49153;45.568;11.894;2022-12-26T08:13:29;102435.06;;;8.58;93.34
57859;BME280;49153;45.568;11.894;2022-12-26T08:15:56;102432.59;;;8.53;93.06
57859;BME280;49153;45.568;11.894;2022-12-26T08:18:22;102434.06;;;8.62;93.01
57859;BME280;49153;45.568;11.894;2022-12-26T08:20:48;102421.00;;;8.59;93.47
57859;BME280;49153;45.568;11.894;2022-12-26T08:23:14;102430.50;;;8.63;93.24
57859;BME280;49153;45.568;11.894;2022-12-26T08:25:39;102426.91;;;8.65;93.03
57859;BME280;49153;45.568;11.894;2022-12-26T08:28:05;102432.06;;;8.68;93.15
57859;BME280;49153;45.568;11.894;2022-12-26T08:30:30;102426.00;;;8.66;92.92
57859;BME280;49153;45.568;11.894;2022-12-26T08:32:55;102419.72;;;8.70;93.13
57859;BME280;49153;45.568;11.894;2022-12-26T08:35:21;102410.91;;;8.71;92.72
57859;BME280;49153;45.568;11.894;2022-12-26T08:37:46;102404.66;;;8.74;92.62
57859;BME280;49153;45.568;11.894;2022-12-26T08:40:12;102421.22;;;8.77;92.38
57859;BME280;49153;45.568;11.894;2022-12-26T08:42:37;102427.09;;;8.84;92.59
57859;BME280;49153;45.568;11.894;2022-12-26T08:45:03;102423.47;;;8.88;92.76
57859;BME280;49153;45.568;11.894;2022-12-26T08:47:28;102427.69;;;8.92;92.80
57859;BME280;49153;45.568;11.894;2022-12-26T08:49:55;102427.88;;;8.87;92.49
57859;BME280;49153;45.568;11.894;2022-12-26T08:52:20;102416.66;;;8.82;92.36
57859;BME280;49153;45.568;11.894;2022-12-26T08:54:46;102418.34;;;8.83;92.68
57859;BME280;49153;45.568;11.894;2022-12-26T08:57:11;102425.91;;;8.93;92.80
57859;BME280;49153;45.568;11.894;2022-12-26T08:59:37;102424.88;;;8.97;93.05
57859;BME280;49153;45.568;11.894;2022-12-26T09:02:02;102426.59;;;8.98;92.44
57859;BME280;49153;45.568;11.894;2022-12-26T09:04:27;102436.91;;;9.04;92.16
57859;BME280;49153;45.568;11.894;2022-12-26T09:06:53;102428.88;;;9.07;92.21
57859;BME280;49153;45.568;11.894;2022-12-26T09:09:18;102424.34;;;9.10;92.09
57859;BME280;49153;45.568;11.894;2022-12-26T09:11:44;102442.50;;;9.18;92.12
57859;BME280;49153;45.568;11.894;2022-12-26T09:14:10;102433.75;;;9.17;92.05
57859;BME280;49153;45.568;11.894;2022-12-26T09:16:41;102436.31;;;9.19;91.52
57859;BME280;49153;45.568;11.894;2022-12-26T09:19:10;102439.81;;;9.19;91.56
57859;BME280;49153;45.568;11.894;2022-12-26T09:21:39;102435.28;;;9.23;91.52
57859;BME280;49153;45.568;11.894;2022-12-26T09:24:09;102436.09;;;9.25;91.82
57859;BME280;49153;45.568;11.894;2022-12-26T09:26:36;102435.16;;;9.26;91.50
57859;BME280;49153;45.568;11.894;2022-12-26T09:29:02;102436.00;;;9.26;90.91
57859;BME280;49153;45.568;11.894;2022-12-26T09:31:30;102430.03;;;9.23;90.79
57859;BME280;49153;45.568;11.894;2022-12-26T09:33:56;102435.97;;;9.28;90.98
57859;BME280;49153;45.568;11.894;2022-12-26T09:36:24;102443.72;;;9.31;90.98
57859;BME280;49153;45.568;11.894;2022-12-26T09:38:51;102424.38;;;9.32;90.76
57859;BME280;49153;45.568;11.894;2022-12-26T09:44:08;102430.06;;;9.45;91.43
57859;BME280;49153;45.568;11.894;2022-12-26T09:49:44;102418.59;;;9.46;90.89
57859;BME280;49153;45.568;11.894;2022-12-26T09:52:19;102430.69;;;9.51;90.85
57859;BME280;49153;45.568;11.894;2022-12-26T09:54:53;102431.41;;;9.55;91.15
57859;BME280;49153;45.568;11.894;2022-12-26T09:57:35;102430.41;;;9.57;90.70
57859;BME280;49153;45.568;11.894;2022-12-26T10:00:05;102423.16;;;9.62;91.19
57859;BME280;49153;45.568;11.894;2022-12-26T10:02:31;102428.34;;;9.65;91.15
57859;BME280;49153;45.568;11.894;2022-12-26T10:04:57;102423.94;;;9.66;91.33
57859;BME280;49153;45.568;11.894;2022-12-26T10:07:28;102434.28;;;9.70;90.75
57859;BME280;49153;45.568;11.894;2022-12-26T10:13:03;102427.28;;;9.69;90.36
57859;BME280;49153;45.568;11.894;2022-12-26T10:15:58;102423.53;;;9.75;90.52
57859;BME280;49153;45.568;11.894;2022-12-26T10:23:44;102430.78;;;9.92;90.90
57859;BME280;49153;45.568;11.894;2022-12-26T10:26:15;102428.94;;;9.94;90.80
57859;BME280;49153;45.568;11.894;2022-12-26T10:31:27;102432.09;;;10.02;90.59
57859;BME280;49153;45.568;11.894;2022-12-26T10:36:34;102431.72;;;10.11;90.63
57859;BME280;49153;45.568;11.894;2022-12-26T10:39:03;102423.56;;;10.17;91.01
57859;BME280;49153;45.568;11.894;2022-12-26T10:41:36;102414.81;;;10.16;89.87
57859;BME280;49153;45.568;11.894;2022-12-26T10:44:05;102416.63;;;10.14;90.45
57859;BME280;49153;45.568;11.894;2022-12-26T10:48:58;102407.69;;;10.19;90.41
57859;BME280;49153;45.568;11.894;2022-12-26T10:51:24;102403.28;;;10.19;90.49
57859;BME280;49153;45.568;11.894;2022-12-26T10:53:52;102415.16;;;10.29;90.33
57859;BME280;49153;45.568;11.894;2022-12-26T10:56:19;102411.44;;;10.33;90.38
57859;BME280;49153;45.568;11.894;2022-12-26T10:58:53;102398.06;;;10.38;90.12
57859;BME280;49153;45.568;11.894;2022-12-26T11:01:31;102400.59;;;10.41;90.18
57859;BME280;49153;45.568;11.894;2022-12-26T11:04:02;102407.94;;;10.53;90.44
57859;BME280;49153;45.568;11.894;2022-12-26T11:06:39;102390.41;;;10.52;90.15
57859;BME280;49153;45.568;11.894;2022-12-26T11:09:06;102394.69;;;10.54;89.78
57859;BME280;49153;45.568;11.894;2022-12-26T11:11:33;102387.56;;;10.56;90.04
57859;BME280;49153;45.568;11.894;2022-12-26T11:14:41;102389.94;;;10.63;90.16
57859;BME280;49153;45.568;11.894;2022-12-26T11:17:23;102385.38;;;10.66;90.04
57859;BME280;49153;45.568;11.894;2022-12-26T11:22:35;102376.31;;;10.72;89.93
57859;BME280;49153;45.568;11.894;2022-12-26T11:27:42;102385.47;;;10.83;89.90
57859;BME280;49153;45.568;11.894;2022-12-26T11:30:16;102380.19;;;10.83;89.74
57859;BME280;49153;45.568;11.894;2022-12-26T11:32:44;102376.75;;;10.81;89.48
57859;BME280;49153;45.568;11.894;2022-12-26T11:35:18;102379.44;;;10.80;88.95
57859;BME280;49153;45.568;11.894;2022-12-26T11:37:45;102372.75;;;10.73;89.32
57859;BME280;49153;45.568;11.894;2022-12-26T11:40:24;102378.75;;;10.76;89.65
57859;BME280;49153;45.568;11.894;2022-12-26T11:43:02;102367.16;;;10.79;89.87
57859;BME280;49153;45.568;11.894;2022-12-26T11:45:30;102362.69;;;10.81;89.53
57859;BME280;49153;45.568;11.894;2022-12-26T11:47:58;102363.34;;;10.86;89.61
57859;BME280;49153;45.568;11.894;2022-12-26T11:50:28;102366.78;;;10.88;89.32
57859;BME280;49153;45.568;11.894;2022-12-26T11:55:24;102368.78;;;10.83;89.58
57859;BME280;49153;45.568;11.894;2022-12-26T12:00:34;102360.69;;;10.86;89.92
57859;BME280;49153;45.568;11.894;2022-12-26T12:03:01;102351.56;;;10.93;89.91
57859;BME280;49153;45.568;11.894;2022-12-26T12:09:05;102346.50;;;10.88;89.13
57859;BME280;49153;45.568;11.894;2022-12-26T12:16:46;102340.50;;;11.04;89.86
57859;BME280;49153;45.568;11.894;2022-12-26T12:19:49;102345.63;;;11.07;89.62
57859;BME280;49153;45.568;11.894;2022-12-26T12:33:20;102326.00;;;11.12;89.75
57859;BME280;49153;45.568;11.894;2022-12-26T12:38:25;102326.06;;;11.11;89.67
57859;BME280;49153;45.568;11.894;2022-12-26T12:43:39;102315.38;;;11.14;89.98
57859;BME280;49153;45.568;11.894;2022-12-26T12:54:44;102311.63;;;11.18;89.90
57859;BME280;49153;45.568;11.894;2022-12-26T13:00:22;102303.50;;;11.22;90.29
57859;BME280;49153;45.568;11.894;2022-12-26T13:02:59;102299.84;;;11.25;90.23
57859;BME280;49153;45.568;11.894;2022-12-26T13:08:38;102295.50;;;11.24;90.04
57859;BME280;49153;45.568;11.894;2022-12-26T13:11:25;102293.78;;;11.23;89.87
57859;BME280;49153;45.568;11.894;2022-12-26T13:14:06;102312.19;;;11.24;90.23
57859;BME280;49153;45.568;11.894;2022-12-26T13:16:41;102313.91;;;11.25;90.04
57859;BME280;49153;45.568;11.894;2022-12-26T13:19:47;102311.19;;;11.27;89.68
57859;BME280;49153;45.568;11.894;2022-12-26T13:22:23;102285.84;;;11.23;89.98
57859;BME280;49153;45.568;11.894;2022-12-26T13:24:55;102293.09;;;11.19;89.77
57859;BME280;49153;45.568;11.894;2022-12-26T13:27:30;102297.28;;;11.23;90.03
57859;BME280;49153;45.568;11.894;2022-12-26T13:29:58;102294.63;;;11.23;90.11
57859;BME280;49153;45.568;11.894;2022-12-26T13:32:25;102290.06;;;11.27;90.38
57859;BME280;49153;45.568;11.894;2022-12-26T13:34:53;102283.78;;;11.29;89.88
57859;BME280;49153;45.568;11.894;2022-12-26T13:40:16;102294.97;;;11.34;90.01
57859;BME280;49153;45.568;11.894;2022-12-26T13:42:50;102294.09;;;11.34;89.98
57859;BME280;49153;45.568;11.894;2022-12-26T13:50:52;102296.28;;;11.43;90.19
57859;BME280;49153;45.568;11.894;2022-12-26T13:55:56;102309.59;;;11.41;89.84
57859;BME280;49153;45.568;11.894;2022-12-26T14:15:54;102303.06;;;11.31;89.90
57859;BME280;49153;45.568;11.894;2022-12-26T14:18:26;102298.59;;;11.32;89.90
57859;BME280;49153;45.568;11.894;2022-12-26T14:24:00;102286.72;;;11.23;90.09
57859;BME280;49153;45.568;11.894;2022-12-26T14:26:32;102296.19;;;11.27;90.15
57859;BME280;49153;45.568;11.894;2022-12-26T14:29:21;102304.91;;;11.29;90.06
57859;BME280;49153;45.568;11.894;2022-12-26T14:40:35;102293.41;;;11.30;90.15
57859;BME280;49153;45.568;11.894;2022-12-26T14:43:08;102291.00;;;11.26;89.96
57859;BME280;49153;45.568;11.894;2022-12-26T14:48:02;102297.34;;;11.22;90.42
57859;BME280;49153;45.568;11.894;2022-12-26T15:01:42;102310.47;;;11.23;90.50
57859;BME280;49153;45.568;11.894;2022-12-26T15:04:22;102313.13;;;11.23;90.47
57859;BME280;49153;45.568;11.894;2022-12-26T15:15:09;102309.06;;;11.16;90.17
57859;BME280;49153;45.568;11.894;2022-12-26T15:20:38;102305.16;;;11.06;90.31
57859;BME280;49153;45.568;11.894;2022-12-26T15:23:22;102303.59;;;11.02;90.65
57859;BME280;49153;45.568;11.894;2022-12-26T15:29:43;102307.91;;;11.05;90.90
57859;BME280;49153;45.568;11.894;2022-12-26T15:32:15;102299.81;;;11.08;90.76
57859;BME280;49153;45.568;11.894;2022-12-26T15:34:48;102302.38;;;11.09;90.71
57859;BME280;49153;45.568;11.894;2022-12-26T15:37:19;102302.44;;;11.08;90.76
57859;BME280;49153;45.568;11.894;2022-12-26T15:47:56;102285.75;;;11.07;90.57
57859;BME280;49153;45.568;11.894;2022-12-26T15:54:17;102301.75;;;11.04;90.88
57859;BME280;49153;45.568;11.894;2022-12-26T15:59:54;102300.78;;;11.05;90.77
57859;BME280;49153;45.568;11.894;2022-12-26T16:04:53;102303.59;;;11.02;90.52
57859;BME280;49153;45.568;11.894;2022-12-26T16:09:58;102289.13;;;10.92;90.61
57859;BME280;49153;45.568;11.894;2022-12-26T16:15:00;102285.34;;;10.79;90.69
57859;BME280;49153;45.568;11.894;2022-12-26T16:17:26;102280.06;;;10.79;90.93
57859;BME280;49153;45.568;11.894;2022-12-26T16:19:53;102286.13;;;10.81;91.04
57859;BME280;49153;45.568;11.894;2022-12-26T16:22:34;102283.66;;;10.78;91.30
57859;BME280;49153;45.568;11.894;2022-12-26T16:25:17;102268.03;;;10.73;91.33
57859;BME280;49153;45.568;11.894;2022-12-26T16:27:45;102279.28;;;10.77;91.61
57859;BME280;49153;45.568;11.894;2022-12-26T16:30:19;102273.16;;;10.76;91.26
57859;BME280;49153;45.568;11.894;2022-12-26T16:32:45;102273.31;;;10.73;91.31
57859;BME280;49153;45.568;11.894;2022-12-26T16:35:32;102277.75;;;10.73;91.55
57859;BME280;49153;45.568;11.894;2022-12-26T16:38:00;102275.22;;;10.70;91.52
57859;BME280;49153;45.568;11.894;2022-12-26T16:40:40;102275.00;;;10.74;91.67
57859;BME280;49153;45.568;11.894;2022-12-26T16:45:38;102266.22;;;10.74;91.77
57859;BME280;49153;45.568;11.894;2022-12-26T16:48:06;102275.72;;;10.78;92.31